METAR Data
IDs: Format: Raw Decoded Include TAF

Data at: 0509 UTC 26 Sep 2018

KRUG 260455Z AUTO 28006KT 10SM FEW075 03/03 A3005 RMK AO2
KRUG 260435Z AUTO 28007KT 10SM BKN080 04/04 A3005 RMK AO2
KRUG 260415Z AUTO 29006KT 10SM OVC080 05/04 A3005 RMK AO2
KRUG 260355Z AUTO 29006KT 10SM OVC080 06/04 A3005 RMK AO2
KRUG 260335Z AUTO 29007KT 10SM OVC080 06/05 A3004 RMK AO2
KRUG 260315Z AUTO 30006KT 10SM FEW065 OVC080 06/05 A3004 RMK AO2
KRUG 260255Z AUTO 28006KT 10SM SCT037 BKN065 OVC080 07/05 A3003 RMK AO2
KRUG 260235Z AUTO 30011KT 10SM SCT047 SCT060 OVC065 07/05 A3004 RMK AO2
KRUG 260215Z AUTO 30007KT 10SM SCT046 SCT060 BKN065 07/05 A3004 RMK AO2
KRUG 260155Z AUTO 32007KT 10SM BKN065 BKN080 08/05 A3003 RMK AO2
KRUG 260135Z AUTO 31010KT 10SM SCT050 BKN065 08/05 A3002 RMK AO2
KRUG 260115Z AUTO 28007KT 10SM FEW039 FEW049 SCT065 06/05 A3001 RMK AO2
KRUG 260055Z AUTO 28006KT 10SM FEW070 FEW090 07/05 A3000 RMK AO2
KRUG 260035Z AUTO 28006KT 10SM FEW043 FEW065 BKN075 09/05 A3000 RMK AO2
KRUG 260015Z AUTO 31007KT 10SM FEW045 BKN065 OVC090 10/05 A2999 RMK AO2
KRUG 252355Z AUTO 30006KT 10SM FEW041 SCT065 BKN070 10/06 A2999 RMK AO2
KRUG 252335Z AUTO 32014KT 9SM FEW044 BKN060 BKN070 11/04 A2998 RMK AO2
KRUG 252315Z AUTO 33014G22KT 10SM OVC060 12/03 A2997 RMK AO2
KRUG 252255Z AUTO 31006KT 10SM BKN060 BKN075 OVC085 12/02 A2996 RMK AO2
KRUG 252235Z AUTO 29008KT 10SM BKN090 13/02 A2996 RMK AO2
KRUG 252215Z AUTO 32009KT 10SM BKN085 13/02 A2995 RMK AO2
KRUG 252155Z AUTO 31007G13KT 10SM FEW049 FEW065 SCT080 14/01 A2995 RMK AO2
KRUG 252135Z AUTO 32006G12KT 10SM FEW048 FEW090 13/02 A2996 RMK AO2
KRUG 252115Z AUTO 33009KT 10SM FEW048 14/02 A2995 RMK AO2
KRUG 252055Z AUTO 28007KT 10SM CLR 14/02 A2996 RMK AO2
KRUG 252035Z AUTO 29007KT 10SM CLR 14/02 A2996 RMK AO2
KRUG 252015Z AUTO 30007KT 10SM FEW039 13/04 A2996 RMK AO2
KRUG 251955Z AUTO 29007KT 260V320 10SM BKN038 14/04 A2996 RMK AO2
KRUG 251935Z AUTO 28009KT 10SM SCT037 13/04 A2997 RMK AO2
KRUG 251915Z AUTO 30009KT 10SM CLR 12/03 A2997 RMK AO2
KRUG 251855Z AUTO VRB04KT 10SM CLR 12/04 A2997 RMK AO2
KRUG 251835Z AUTO 30005G11KT 10SM CLR 12/03 A2998 RMK AO2
KRUG 251815Z AUTO 28004KT 10SM CLR 12/03 A2998 RMK AO2
KRUG 251755Z AUTO VRB04KT 10SM CLR 11/03 A2998 RMK AO2
KRUG 251735Z AUTO 23006KT 10SM CLR 11/03 A2998 RMK AO2
KRUG 251715Z AUTO 32005KT 10SM CLR 10/03 A2998 RMK AO2
KRUG 251655Z AUTO 00000KT 10SM CLR 10/03 A2999 RMK AO2
KRUG 251635Z AUTO 31004KT 10SM CLR 09/02 A2999 RMK AO2
KRUG 251615Z AUTO 28004KT 10SM CLR 08/02 A3000 RMK AO2
KRUG 251555Z AUTO 29004KT 10SM CLR 08/02 A3000 RMK AO2
KRUG 251535Z AUTO 00000KT 10SM CLR 07/02 A3000 RMK AO2
KRUG 251515Z AUTO 00000KT 10SM CLR 06/02 A3000 RMK AO2
KRUG 251455Z AUTO 30005KT 10SM CLR 06/03 A3000 RMK AO2
KRUG 251435Z AUTO 28006KT 10SM CLR 05/04 A3001 RMK AO2
KRUG 251415Z AUTO 26004KT 10SM CLR 03/03 A3001 RMK AO2
KRUG 251355Z AUTO 00000KT 8SM CLR 02/02 A3000 RMK AO2
KRUG 251335Z AUTO 24004KT 4SM BR CLR 00/01 A3000 RMK AO2
KRUG 251315Z AUTO 24004KT 6SM BR CLR M00/M00 A2999 RMK AO2
KRUG 251255Z AUTO 25003KT 1 1/2SM BR CLR M00/M00 A2999 RMK AO2
KRUG 251235Z AUTO 30003KT 6SM BR CLR 00/00 A2998 RMK AO2
KRUG 251215Z AUTO 30003KT 7SM FEW022 01/01 A2998 RMK AO2
KRUG 251155Z AUTO 00000KT 9SM FEW022 SCT027 01/01 A2999 RMK AO2
KRUG 251135Z AUTO 00000KT 7SM BKN026 01/01 A2999 RMK AO2
KRUG 251115Z AUTO 29004KT 8SM OVC026 01/01 A2998 RMK AO2
KRUG 251055Z AUTO 00000KT 9SM OVC026 01/01 A2999 RMK AO2
KRUG 251035Z AUTO 25004KT 9SM BKN027 M00/M00 A3000 RMK AO2
KRUG 251015Z AUTO 25005KT 9SM FEW026 M01/M01 A2999 RMK AO2
KRUG 250955Z AUTO 27005KT 9SM CLR M01/M00 A2998 RMK AO2
KRUG 250935Z AUTO 29004KT 9SM CLR 00/00 A2998 RMK AO2
KRUG 250915Z AUTO 31006KT 10SM CLR 01/01 A2997 RMK AO2
KRUG 250855Z AUTO 30006KT 10SM SCT090 02/02 A2997 RMK AO2
KRUG 250835Z AUTO 30006KT 10SM FEW017 OVC090 03/03 A2998 RMK AO2
KRUG 250815Z AUTO 29005KT 10SM OVC095 03/03 A2998 RMK AO2
KRUG 250755Z AUTO 29006KT 10SM OVC095 03/03 A2998 RMK AO2
KRUG 250735Z AUTO 28005KT 10SM OVC090 04/04 A2998 RMK AO2
KRUG 250715Z AUTO 26005KT 10SM OVC100 03/03 A2998 RMK AO2
KRUG 250655Z AUTO 26005KT 10SM BKN095 OVC110 03/03 A2998 RMK AO2
KRUG 250635Z AUTO 24006KT 9SM BKN085 BKN110 02/02 A2998 RMK AO2
KRUG 250615Z AUTO 26004KT 10SM FEW025 SCT080 02/02 A2998 RMK AO2
KRUG 250555Z AUTO 28006KT 10SM FEW024 FEW065 02/02 A2998 RMK AO2
KRUG 250535Z AUTO 27005KT 10SM FEW065 FEW090 03/03 A2997 RMK AO2
KRUG 250515Z AUTO 29005KT 10SM FEW031 SCT075 04/05 A2997 RMK AO2
KRUG 250455Z AUTO 30006KT 10SM FEW034 BKN075 OVC090 06/05 A2997 RMK AO2
KRUG 250435Z AUTO 29007KT 10SM SCT075 OVC100 06/06 A2997 RMK AO2
KRUG 250415Z AUTO 30006KT 10SM OVC110 06/06 A2997 RMK AO2
KRUG 250355Z AUTO 30007KT 10SM SCT110 06/06 A2996 RMK AO2
KRUG 250335Z AUTO 31007KT 10SM CLR 06/06 A2995 RMK AO2
KRUG 250315Z AUTO 29005KT 10SM SCT025 05/05 A2994 RMK AO2
KRUG 250255Z AUTO 28004KT 10SM BKN025 BKN040 05/05 A2994 RMK AO2
KRUG 250235Z AUTO 00000KT 10SM FEW028 BKN039 05/06 A2993 RMK AO2
KRUG 250215Z AUTO 00000KT 10SM BKN039 06/06 A2993 RMK AO2
KRUG 250155Z AUTO 00000KT 10SM SCT042 06/06 A2993 RMK AO2
KRUG 250135Z AUTO 00000KT 10SM FEW042 07/06 A2992 RMK AO2
KRUG 250115Z AUTO 32003KT 10SM SCT040 07/06 A2992 RMK AO2
KRUG 250055Z AUTO 33006KT 10SM SCT040 08/06 A2991 RMK AO2
KRUG 250035Z AUTO 34007KT 10SM SCT042 08/06 A2991 RMK AO2
KRUG 250015Z AUTO 33006KT 10SM OVC042 09/06 A2991 RMK AO2
KRUG 242355Z AUTO 32007KT 10SM OVC041 10/07 A2991 RMK AO2
KRUG 242335Z AUTO 31009KT 10SM FEW030 SCT039 BKN044 10/07 A2990 RMK AO2
KRUG 242315Z AUTO 29009KT 10SM SCT025 BKN031 OVC039 10/07 A2990 RMK AO2
KRUG 242255Z AUTO 30009G15KT 10SM OVC023 10/06 A2989 RMK AO2
KRUG 242235Z AUTO 31007G13KT 10SM OVC021 10/07 A2989 RMK AO2
KRUG 242215Z AUTO 30011KT 10SM OVC020 11/07 A2989 RMK AO2
KRUG 242155Z AUTO 29012KT 10SM BKN019 OVC047 11/07 A2988 RMK AO2
KRUG 242135Z AUTO 29009KT 9SM FEW017 OVC047 10/07 A2988 RMK AO2
KRUG 242115Z AUTO 29009G15KT 10SM SCT016 OVC046 10/07 A2987 RMK AO2
KRUG 242055Z AUTO 29010G15KT 10SM BKN014 OVC045 10/07 A2987 RMK AO2
KRUG 242035Z AUTO 30011KT 10SM OVC014 09/07 A2987 RMK AO2
KRUG 242015Z AUTO 30010KT 9SM OVC014 09/07 A2987 RMK AO2
KRUG 241955Z AUTO 28011KT 10SM OVC013 09/07 A2987 RMK AO2
KRUG 241935Z AUTO 29008KT 10SM OVC013 09/07 A2988 RMK AO2
KRUG 241915Z AUTO 28009KT 9SM OVC013 09/07 A2988 RMK AO2
KRUG 241855Z AUTO 28011KT 9SM OVC011 08/07 A2989 RMK AO2
KRUG 241835Z AUTO 28008KT 9SM OVC011 08/07 A2988 RMK AO2
KRUG 241815Z AUTO 28008KT 9SM OVC010 08/07 A2989 RMK AO2
KRUG 241755Z AUTO 29008KT 8SM OVC008 07/07 A2989 RMK AO2
KRUG 241735Z AUTO 29007KT 8SM BKN007 OVC012 07/07 A2988 RMK AO2
KRUG 241715Z AUTO 30008KT 8SM BKN007 OVC011 07/07 A2988 RMK AO2